Terminal Aerodrome Forecast
Issued by NWS Central Illinois

Home | Current Version | Previous Version | Text Only | Print | Product List | Glossary On
Versions: 1 2 3 4 5 6 7 8 9 10 11 12 13 14 15 16 17 18 19
000
FTUS43 KILX 170524
TAFSPI
TAF
KSPI 170524Z 1706/1806 20009KT P6SM -SHRA VCTS SCT035CB BKN090
      TEMPO 1708/1710 BKN030CB
     FM171000 21008KT P6SM VCSH BKN025
     FM171500 25011KT P6SM SCT025 BKN050
     FM171800 25013G19KT P6SM SCT200
     FM180000 27008KT P6SM FEW200=

USA.gov is the U.S. government's official web portal to all federal, state and local government web resources and services.